Malacca Airport Malacca MY
ICAO: WMKM
IATA:
Category: Medium
Scheduled Services:

Elevation: 35 ft
TransAlt. 11000 ft.

Airport Communications:
:127.45
GND:121.6
TWR:118

WMKM Zoom In..

If you have problems with the map follow the link
https://www.worldairports.se/pages/airport.php?
ICAO=WMKM

Runways:

(A) RW 03 length 7005 ft width 148 ft
ILS 111.70 / hdg 30

(B) RW 21 length 7005 ft width 148 ft
---- / hdg 210

Location; WMKM
Day. 14 / Time. 08.00 Zulu
* QNH: 1009
* Temperature: 27° c. 80.6°f.
* Wind from: 100° Speed 09 kn.
Dewpoint: 24° c.
Visibility: 9000 m.
Clouds: Few 1700 ft.
Clouds: Scattered 2000 ft.
Clouds: Broken 14000 ft.
Conditions: Thunderstorm.

WMKM 140800Z 10009KT 070V140 9000 TS FEW017CB SCT020 BKN140 27/24 Q1009


Wind From 100°
Speed 09 kn.

 
 
jpsmedia worldairports.se 2019   terms of use